map of WYS home
WYS - Airport
Location
City:  West Yellowstone, Montana, United States
Name:Yellowstone Airport
ICAO:KWYS
IATA:WYS
FAA LID:WYS

Details
Type:Airport (Part 139 Class I)
Use:Public/Civil
Latitude:4441'18"N (44.688389)
Longitude:11107'03"W (-111.117638)
Datum:WGS 1984
Elevation:6649 ft (2027 m)
Variation:11.60E (WMM2015 magnetic declination)
-0.12 annual change
Runways:1
Longest:8400 × 150 ft (2560 × 45.5 m), paved

Time
Time Zone:UTC-7 (DST-6)
Local Time:

Weather
METAR:KWYS 181330Z AUTO 00000KT 10SM BKN002 M13/M14 A2992 RMK AO2

Related Locations
Nearby:
Farthest:RRG: 10683 mi / 17193 km
Plaine Corail [Sir Gatan Duval Airport (Plaine Corail Airport)], Rodrigues Island, MU

Find:

   beyond  
but within

Other Information
Maps:
NOTAMs:
Links:
Sources:

  
  • flag of United States
  • flag of Montana
  

Sectional Chart

Flight Planning
at skyvector.com

Satellite Image

Google Maps Satellite view

 

Copyright © 2004-2019 Karl L. Swartz. All rights reserved.
The Great Circle Mapper name and logo are trademarks of the Great Circle Mapper.
All other trademarks mentioned herein belong to their respective owners.
Please see credits for attibutions and further copyright information.

  Follow gcmap on Facebook Follow gcmap on Twitter Follow gcmap on Google+ GCmap on LinkedIn

hCard Microformat

Geo Microformat